sensor_id;sensor_type;location;lat;lon;timestamp;temperature;humidity
17659;DHT22;8948;51.534;8.262;2022-09-24T00:04:46;15.20;58.80
17659;DHT22;8948;51.534;8.262;2022-09-24T00:09:47;15.20;58.80
17659;DHT22;8948;51.534;8.262;2022-09-24T00:14:47;15.20;59.10
17659;DHT22;8948;51.534;8.262;2022-09-24T00:19:48;15.10;59.30
17659;DHT22;8948;51.534;8.262;2022-09-24T00:24:48;15.10;59.20
17659;DHT22;8948;51.534;8.262;2022-09-24T00:30:08;15.10;59.50
17659;DHT22;8948;51.534;8.262;2022-09-24T00:35:08;15.00;59.80
17659;DHT22;8948;51.534;8.262;2022-09-24T00:40:09;15.00;59.50
17659;DHT22;8948;51.534;8.262;2022-09-24T00:45:10;15.00;59.60
17659;DHT22;8948;51.534;8.262;2022-09-24T00:50:31;14.90;59.80
17659;DHT22;8948;51.534;8.262;2022-09-24T00:55:35;14.90;60.40
17659;DHT22;8948;51.534;8.262;2022-09-24T01:00:38;14.80;60.10
17659;DHT22;8948;51.534;8.262;2022-09-24T01:05:38;14.80;59.70
17659;DHT22;8948;51.534;8.262;2022-09-24T01:31:48;14.50;60.40
17659;DHT22;8948;51.534;8.262;2022-09-24T01:36:51;14.50;60.20
17659;DHT22;8948;51.534;8.262;2022-09-24T01:41:53;14.50;60.20
17659;DHT22;8948;51.534;8.262;2022-09-24T01:46:54;14.50;60.40
17659;DHT22;8948;51.534;8.262;2022-09-24T01:51:58;14.50;60.50
17659;DHT22;8948;51.534;8.262;2022-09-24T01:57:20;14.40;60.90
17659;DHT22;8948;51.534;8.262;2022-09-24T02:02:35;14.40;61.00
17659;DHT22;8948;51.534;8.262;2022-09-24T02:07:44;14.40;61.50
17659;DHT22;8948;51.534;8.262;2022-09-24T02:12:51;14.40;61.10
17659;DHT22;8948;51.534;8.262;2022-09-24T02:17:56;14.40;61.00
17659;DHT22;8948;51.534;8.262;2022-09-24T02:22:58;14.40;60.80
17659;DHT22;8948;51.534;8.262;2022-09-24T02:27:58;14.30;61.20
17659;DHT22;8948;51.534;8.262;2022-09-24T02:32:59;14.30;61.40
17659;DHT22;8948;51.534;8.262;2022-09-24T02:38:00;14.20;61.90
17659;DHT22;8948;51.534;8.262;2022-09-24T02:43:04;14.10;61.90
17659;DHT22;8948;51.534;8.262;2022-09-24T02:48:04;14.20;62.10
17659;DHT22;8948;51.534;8.262;2022-09-24T02:53:05;14.20;61.90
17659;DHT22;8948;51.534;8.262;2022-09-24T02:58:05;14.20;62.00
17659;DHT22;8948;51.534;8.262;2022-09-24T03:03:06;14.30;61.40
17659;DHT22;8948;51.534;8.262;2022-09-24T03:08:07;14.30;61.60
17659;DHT22;8948;51.534;8.262;2022-09-24T03:13:07;14.30;61.50
17659;DHT22;8948;51.534;8.262;2022-09-24T03:18:08;14.20;61.10
17659;DHT22;8948;51.534;8.262;2022-09-24T03:23:08;14.10;61.30
17659;DHT22;8948;51.534;8.262;2022-09-24T03:28:09;14.10;61.50
17659;DHT22;8948;51.534;8.262;2022-09-24T03:33:09;14.10;61.50
17659;DHT22;8948;51.534;8.262;2022-09-24T03:38:10;14.00;61.80
17659;DHT22;8948;51.534;8.262;2022-09-24T03:43:10;14.00;61.90
17659;DHT22;8948;51.534;8.262;2022-09-24T03:48:11;14.00;62.10
17659;DHT22;8948;51.534;8.262;2022-09-24T03:53:12;14.00;62.30
17659;DHT22;8948;51.534;8.262;2022-09-24T03:58:14;14.00;62.20
17659;DHT22;8948;51.534;8.262;2022-09-24T04:03:15;14.10;64.50
17659;DHT22;8948;51.534;8.262;2022-09-24T04:08:16;14.30;64.40
17659;DHT22;8948;51.534;8.262;2022-09-24T04:13:18;14.50;62.90
17659;DHT22;8948;51.534;8.262;2022-09-24T04:18:19;14.50;62.60
17659;DHT22;8948;51.534;8.262;2022-09-24T04:23:20;14.50;63.30
17659;DHT22;8948;51.534;8.262;2022-09-24T04:28:20;14.50;63.10
17659;DHT22;8948;51.534;8.262;2022-09-24T04:33:21;14.50;62.00
17659;DHT22;8948;51.534;8.262;2022-09-24T04:38:22;14.40;63.50
17659;DHT22;8948;51.534;8.262;2022-09-24T04:43:22;14.50;63.70
17659;DHT22;8948;51.534;8.262;2022-09-24T04:48:23;14.60;64.00
17659;DHT22;8948;51.534;8.262;2022-09-24T04:53:23;14.60;63.70
17659;DHT22;8948;51.534;8.262;2022-09-24T04:58:25;14.50;62.70
17659;DHT22;8948;51.534;8.262;2022-09-24T05:03:25;14.40;63.30
17659;DHT22;8948;51.534;8.262;2022-09-24T05:08:26;14.30;63.90
17659;DHT22;8948;51.534;8.262;2022-09-24T05:13:27;14.20;63.90
17659;DHT22;8948;51.534;8.262;2022-09-24T05:18:27;14.20;64.20
17659;DHT22;8948;51.534;8.262;2022-09-24T05:23:28;14.20;64.00
17659;DHT22;8948;51.534;8.262;2022-09-24T05:28:28;14.10;63.70
17659;DHT22;8948;51.534;8.262;2022-09-24T05:33:32;14.10;63.70
17659;DHT22;8948;51.534;8.262;2022-09-24T05:38:33;14.10;63.90
17659;DHT22;8948;51.534;8.262;2022-09-24T05:43:33;14.10;64.50
17659;DHT22;8948;51.534;8.262;2022-09-24T05:48:34;14.10;64.40
17659;DHT22;8948;51.534;8.262;2022-09-24T05:53:34;14.20;65.30
17659;DHT22;8948;51.534;8.262;2022-09-24T05:58:35;14.20;64.80
17659;DHT22;8948;51.534;8.262;2022-09-24T06:03:36;14.10;65.00
17659;DHT22;8948;51.534;8.262;2022-09-24T06:08:36;14.10;65.00
17659;DHT22;8948;51.534;8.262;2022-09-24T06:13:37;14.10;65.10
17659;DHT22;8948;51.534;8.262;2022-09-24T06:18:41;14.10;65.40
17659;DHT22;8948;51.534;8.262;2022-09-24T06:23:42;14.10;65.60
17659;DHT22;8948;51.534;8.262;2022-09-24T06:28:44;14.10;65.90
17659;DHT22;8948;51.534;8.262;2022-09-24T06:33:45;14.10;66.10
17659;DHT22;8948;51.534;8.262;2022-09-24T06:38:50;14.10;66.30
17659;DHT22;8948;51.534;8.262;2022-09-24T06:43:53;14.10;66.80
17659;DHT22;8948;51.534;8.262;2022-09-24T06:48:53;14.20;66.50
17659;DHT22;8948;51.534;8.262;2022-09-24T06:53:54;14.20;67.00
17659;DHT22;8948;51.534;8.262;2022-09-24T06:58:55;14.40;67.10
17659;DHT22;8948;51.534;8.262;2022-09-24T07:03:55;14.50;66.80
17659;DHT22;8948;51.534;8.262;2022-09-24T07:08:56;14.70;66.50
17659;DHT22;8948;51.534;8.262;2022-09-24T07:13:56;14.90;66.00
17659;DHT22;8948;51.534;8.262;2022-09-24T07:18:57;15.30;65.00
17659;DHT22;8948;51.534;8.262;2022-09-24T07:23:58;15.60;65.20
17659;DHT22;8948;51.534;8.262;2022-09-24T07:28:58;15.80;64.20
17659;DHT22;8948;51.534;8.262;2022-09-24T07:33:59;16.10;64.30
17659;DHT22;8948;51.534;8.262;2022-09-24T07:38:59;16.40;64.10
17659;DHT22;8948;51.534;8.262;2022-09-24T07:44:00;16.30;64.10
17659;DHT22;8948;51.534;8.262;2022-09-24T07:49:01;16.50;63.60
17659;DHT22;8948;51.534;8.262;2022-09-24T07:54:02;16.60;64.10
17659;DHT22;8948;51.534;8.262;2022-09-24T07:59:03;16.50;63.30
17659;DHT22;8948;51.534;8.262;2022-09-24T08:04:05;16.60;63.70
17659;DHT22;8948;51.534;8.262;2022-09-24T08:09:06;16.60;64.50
17659;DHT22;8948;51.534;8.262;2022-09-24T08:14:07;16.80;64.10
17659;DHT22;8948;51.534;8.262;2022-09-24T08:19:08;16.90;63.80
17659;DHT22;8948;51.534;8.262;2022-09-24T08:24:14;17.00;64.30
17659;DHT22;8948;51.534;8.262;2022-09-24T08:29:15;17.00;64.80
17659;DHT22;8948;51.534;8.262;2022-09-24T08:34:16;17.20;64.20
17659;DHT22;8948;51.534;8.262;2022-09-24T08:39:16;17.30;63.80
17659;DHT22;8948;51.534;8.262;2022-09-24T08:44:38;17.50;64.60
17659;DHT22;8948;51.534;8.262;2022-09-24T08:50:23;17.60;64.00
17659;DHT22;8948;51.534;8.262;2022-09-24T08:55:37;17.70;63.50
17659;DHT22;8948;51.534;8.262;2022-09-24T09:00:46;17.50;63.80
17659;DHT22;8948;51.534;8.262;2022-09-24T09:05:58;17.70;63.60
17659;DHT22;8948;51.534;8.262;2022-09-24T09:11:02;17.70;63.30
17659;DHT22;8948;51.534;8.262;2022-09-24T09:16:08;17.80;62.40
17659;DHT22;8948;51.534;8.262;2022-09-24T09:21:33;17.70;61.70
17659;DHT22;8948;51.534;8.262;2022-09-24T09:26:37;17.80;61.20
17659;DHT22;8948;51.534;8.262;2022-09-24T09:31:50;17.70;60.90
17659;DHT22;8948;51.534;8.262;2022-09-24T09:37:26;17.70;60.40
17659;DHT22;8948;51.534;8.262;2022-09-24T09:42:33;17.70;61.30
17659;DHT22;8948;51.534;8.262;2022-09-24T09:47:45;17.80;61.80
17659;DHT22;8948;51.534;8.262;2022-09-24T09:52:47;17.90;61.70
17659;DHT22;8948;51.534;8.262;2022-09-24T09:57:48;17.80;61.50
17659;DHT22;8948;51.534;8.262;2022-09-24T10:02:49;18.00;61.80
17659;DHT22;8948;51.534;8.262;2022-09-24T10:07:55;18.20;62.00
17659;DHT22;8948;51.534;8.262;2022-09-24T10:13:08;18.30;60.90
17659;DHT22;8948;51.534;8.262;2022-09-24T10:18:10;18.30;60.70
17659;DHT22;8948;51.534;8.262;2022-09-24T10:23:30;18.40;61.50
17659;DHT22;8948;51.534;8.262;2022-09-24T10:28:33;18.50;61.10
17659;DHT22;8948;51.534;8.262;2022-09-24T10:33:55;18.30;61.30
17659;DHT22;8948;51.534;8.262;2022-09-24T10:39:14;18.40;60.50
17659;DHT22;8948;51.534;8.262;2022-09-24T10:44:15;18.40;60.30
17659;DHT22;8948;51.534;8.262;2022-09-24T10:55:48;18.10;60.10
17659;DHT22;8948;51.534;8.262;2022-09-24T11:00:22;18.00;60.70
17659;DHT22;8948;51.534;8.262;2022-09-24T11:05:24;18.00;61.10
17659;DHT22;8948;51.534;8.262;2022-09-24T11:10:50;18.00;61.10
17659;DHT22;8948;51.534;8.262;2022-09-24T11:16:21;17.90;61.80
17659;DHT22;8948;51.534;8.262;2022-09-24T11:27:23;18.10;61.90
17659;DHT22;8948;51.534;8.262;2022-09-24T11:33:04;18.10;60.00
17659;DHT22;8948;51.534;8.262;2022-09-24T11:38:30;18.20;61.10
17659;DHT22;8948;51.534;8.262;2022-09-24T11:54:22;18.30;61.10
17659;DHT22;8948;51.534;8.262;2022-09-24T11:59:32;18.50;61.40
17659;DHT22;8948;51.534;8.262;2022-09-24T12:04:59;18.50;62.80
17659;DHT22;8948;51.534;8.262;2022-09-24T12:10:04;18.60;62.00
17659;DHT22;8948;51.534;8.262;2022-09-24T12:15:19;18.80;61.00
17659;DHT22;8948;51.534;8.262;2022-09-24T12:20:25;18.80;59.80
17659;DHT22;8948;51.534;8.262;2022-09-24T12:25:28;18.80;59.70
17659;DHT22;8948;51.534;8.262;2022-09-24T12:30:46;18.70;60.30
17659;DHT22;8948;51.534;8.262;2022-09-24T12:41:36;18.60;61.00
17659;DHT22;8948;51.534;8.262;2022-09-24T12:46:43;18.40;60.80
17659;DHT22;8948;51.534;8.262;2022-09-24T12:51:45;18.20;63.10
17659;DHT22;8948;51.534;8.262;2022-09-24T12:56:46;18.10;63.10
17659;DHT22;8948;51.534;8.262;2022-09-24T13:01:47;17.90;62.50
17659;DHT22;8948;51.534;8.262;2022-09-24T13:06:48;17.80;63.10
17659;DHT22;8948;51.534;8.262;2022-09-24T13:12:19;17.70;63.30
17659;DHT22;8948;51.534;8.262;2022-09-24T13:17:20;17.80;64.50
17659;DHT22;8948;51.534;8.262;2022-09-24T13:22:30;17.90;64.90
17659;DHT22;8948;51.534;8.262;2022-09-24T13:32:36;17.80;65.40
17659;DHT22;8948;51.534;8.262;2022-09-24T13:37:42;17.80;66.80
17659;DHT22;8948;51.534;8.262;2022-09-24T13:43:46;17.80;67.10
17659;DHT22;8948;51.534;8.262;2022-09-24T13:48:52;17.70;67.10
17659;DHT22;8948;51.534;8.262;2022-09-24T13:54:05;17.60;67.20
17659;DHT22;8948;51.534;8.262;2022-09-24T13:59:11;17.70;66.80
17659;DHT22;8948;51.534;8.262;2022-09-24T14:04:19;17.70;67.00
17659;DHT22;8948;51.534;8.262;2022-09-24T14:09:32;17.60;67.30
17659;DHT22;8948;51.534;8.262;2022-09-24T14:14:34;17.60;67.80
17659;DHT22;8948;51.534;8.262;2022-09-24T14:19:35;17.40;68.10
17659;DHT22;8948;51.534;8.262;2022-09-24T14:29:57;17.40;67.90
17659;DHT22;8948;51.534;8.262;2022-09-24T14:35:04;17.40;68.20
17659;DHT22;8948;51.534;8.262;2022-09-24T14:40:14;17.30;68.40
17659;DHT22;8948;51.534;8.262;2022-09-24T14:45:41;17.40;68.20
17659;DHT22;8948;51.534;8.262;2022-09-24T14:50:42;17.40;68.20
17659;DHT22;8948;51.534;8.262;2022-09-24T14:55:43;17.30;68.10
17659;DHT22;8948;51.534;8.262;2022-09-24T15:00:48;17.30;68.70
17659;DHT22;8948;51.534;8.262;2022-09-24T15:05:49;17.30;68.60
17659;DHT22;8948;51.534;8.262;2022-09-24T15:10:54;17.30;68.90
17659;DHT22;8948;51.534;8.262;2022-09-24T15:16:28;17.20;69.50
17659;DHT22;8948;51.534;8.262;2022-09-24T15:21:29;17.20;69.40
17659;DHT22;8948;51.534;8.262;2022-09-24T15:26:32;17.20;68.10
17659;DHT22;8948;51.534;8.262;2022-09-24T15:31:33;17.10;68.00
17659;DHT22;8948;51.534;8.262;2022-09-24T15:36:33;17.10;67.90
17659;DHT22;8948;51.534;8.262;2022-09-24T15:41:35;17.10;68.40
17659;DHT22;8948;51.534;8.262;2022-09-24T15:46:36;17.10;67.70
17659;DHT22;8948;51.534;8.262;2022-09-24T15:51:37;17.00;69.00
17659;DHT22;8948;51.534;8.262;2022-09-24T15:56:38;16.90;69.70
17659;DHT22;8948;51.534;8.262;2022-09-24T16:01:42;16.90;69.90
17659;DHT22;8948;51.534;8.262;2022-09-24T16:06:43;16.80;69.80
17659;DHT22;8948;51.534;8.262;2022-09-24T16:11:43;16.80;70.20
17659;DHT22;8948;51.534;8.262;2022-09-24T16:16:44;16.80;70.00
17659;DHT22;8948;51.534;8.262;2022-09-24T16:21:44;16.80;69.90
17659;DHT22;8948;51.534;8.262;2022-09-24T16:26:45;16.80;70.10
17659;DHT22;8948;51.534;8.262;2022-09-24T16:31:45;16.80;69.80
17659;DHT22;8948;51.534;8.262;2022-09-24T16:36:46;16.70;70.10
17659;DHT22;8948;51.534;8.262;2022-09-24T16:41:48;16.70;69.70
17659;DHT22;8948;51.534;8.262;2022-09-24T16:46:48;16.60;69.50
17659;DHT22;8948;51.534;8.262;2022-09-24T16:51:50;16.60;69.80
17659;DHT22;8948;51.534;8.262;2022-09-24T16:56:50;16.50;70.10
17659;DHT22;8948;51.534;8.262;2022-09-24T17:01:51;16.40;70.40
17659;DHT22;8948;51.534;8.262;2022-09-24T17:06:54;16.40;70.60
17659;DHT22;8948;51.534;8.262;2022-09-24T17:11:55;16.40;71.00
17659;DHT22;8948;51.534;8.262;2022-09-24T17:16:56;16.40;71.10
17659;DHT22;8948;51.534;8.262;2022-09-24T17:21:57;16.30;71.40
17659;DHT22;8948;51.534;8.262;2022-09-24T17:26:58;16.30;71.60
17659;DHT22;8948;51.534;8.262;2022-09-24T17:31:59;16.30;71.50
17659;DHT22;8948;51.534;8.262;2022-09-24T17:37:00;16.20;71.50
17659;DHT22;8948;51.534;8.262;2022-09-24T17:42:00;16.20;71.70
17659;DHT22;8948;51.534;8.262;2022-09-24T17:47:01;16.20;71.60
17659;DHT22;8948;51.534;8.262;2022-09-24T17:52:02;16.20;71.60
17659;DHT22;8948;51.534;8.262;2022-09-24T17:57:03;16.10;71.20
17659;DHT22;8948;51.534;8.262;2022-09-24T18:02:04;16.10;70.80
17659;DHT22;8948;51.534;8.262;2022-09-24T18:07:05;16.00;71.00
17659;DHT22;8948;51.534;8.262;2022-09-24T18:12:06;16.00;71.10
17659;DHT22;8948;51.534;8.262;2022-09-24T18:17:07;16.00;71.70
17659;DHT22;8948;51.534;8.262;2022-09-24T18:22:08;15.90;71.80
17659;DHT22;8948;51.534;8.262;2022-09-24T18:27:10;15.90;72.10
17659;DHT22;8948;51.534;8.262;2022-09-24T18:32:14;15.80;72.20
17659;DHT22;8948;51.534;8.262;2022-09-24T18:37:15;15.80;72.00
17659;DHT22;8948;51.534;8.262;2022-09-24T18:42:15;15.90;71.80
17659;DHT22;8948;51.534;8.262;2022-09-24T18:47:16;15.90;72.00
17659;DHT22;8948;51.534;8.262;2022-09-24T18:52:18;15.80;72.00
17659;DHT22;8948;51.534;8.262;2022-09-24T18:57:19;15.80;72.00
17659;DHT22;8948;51.534;8.262;2022-09-24T19:02:19;15.80;72.00
17659;DHT22;8948;51.534;8.262;2022-09-24T19:07:24;15.80;71.90
17659;DHT22;8948;51.534;8.262;2022-09-24T19:12:24;15.70;72.10
17659;DHT22;8948;51.534;8.262;2022-09-24T19:17:27;15.60;72.30
17659;DHT22;8948;51.534;8.262;2022-09-24T19:22:27;15.60;72.20
17659;DHT22;8948;51.534;8.262;2022-09-24T19:27:28;15.60;72.40
17659;DHT22;8948;51.534;8.262;2022-09-24T19:32:28;15.60;72.50
17659;DHT22;8948;51.534;8.262;2022-09-24T19:37:29;15.60;72.20
17659;DHT22;8948;51.534;8.262;2022-09-24T19:42:30;15.50;72.20
17659;DHT22;8948;51.534;8.262;2022-09-24T19:47:31;15.50;72.20
17659;DHT22;8948;51.534;8.262;2022-09-24T19:52:32;15.50;72.20
17659;DHT22;8948;51.534;8.262;2022-09-24T19:57:34;15.50;72.40
17659;DHT22;8948;51.534;8.262;2022-09-24T20:02:34;15.50;72.50
17659;DHT22;8948;51.534;8.262;2022-09-24T20:07:35;15.50;72.60
17659;DHT22;8948;51.534;8.262;2022-09-24T20:12:36;15.50;72.60
17659;DHT22;8948;51.534;8.262;2022-09-24T20:17:37;15.50;72.50
17659;DHT22;8948;51.534;8.262;2022-09-24T20:22:37;15.50;72.40
17659;DHT22;8948;51.534;8.262;2022-09-24T20:27:38;15.40;72.60
17659;DHT22;8948;51.534;8.262;2022-09-24T20:32:50;15.40;72.70
17659;DHT22;8948;51.534;8.262;2022-09-24T20:37:51;15.40;72.90
17659;DHT22;8948;51.534;8.262;2022-09-24T20:42:51;15.40;72.90
17659;DHT22;8948;51.534;8.262;2022-09-24T20:47:52;15.40;73.00
17659;DHT22;8948;51.534;8.262;2022-09-24T20:52:53;15.40;73.00
17659;DHT22;8948;51.534;8.262;2022-09-24T20:57:53;15.40;72.80
17659;DHT22;8948;51.534;8.262;2022-09-24T21:02:54;15.30;72.80
17659;DHT22;8948;51.534;8.262;2022-09-24T21:07:55;15.20;73.10
17659;DHT22;8948;51.534;8.262;2022-09-24T21:12:56;15.20;72.90
17659;DHT22;8948;51.534;8.262;2022-09-24T21:17:56;15.20;73.00
17659;DHT22;8948;51.534;8.262;2022-09-24T21:22:57;15.10;72.60
17659;DHT22;8948;51.534;8.262;2022-09-24T21:28:00;15.10;72.90
17659;DHT22;8948;51.534;8.262;2022-09-24T21:33:01;15.00;73.10
17659;DHT22;8948;51.534;8.262;2022-09-24T21:38:02;15.00;73.10
17659;DHT22;8948;51.534;8.262;2022-09-24T21:43:02;15.00;73.10
17659;DHT22;8948;51.534;8.262;2022-09-24T21:48:05;15.00;73.30
17659;DHT22;8948;51.534;8.262;2022-09-24T21:53:07;15.00;73.40
17659;DHT22;8948;51.534;8.262;2022-09-24T21:58:08;15.00;73.50
17659;DHT22;8948;51.534;8.262;2022-09-24T22:03:09;15.10;73.60
17659;DHT22;8948;51.534;8.262;2022-09-24T22:08:09;15.10;73.50
17659;DHT22;8948;51.534;8.262;2022-09-24T22:13:13;15.10;73.60
17659;DHT22;8948;51.534;8.262;2022-09-24T22:18:14;15.10;73.40
17659;DHT22;8948;51.534;8.262;2022-09-24T22:23:14;15.10;73.80
17659;DHT22;8948;51.534;8.262;2022-09-24T22:28:16;15.00;74.10
17659;DHT22;8948;51.534;8.262;2022-09-24T22:33:17;15.00;74.30
17659;DHT22;8948;51.534;8.262;2022-09-24T22:38:36;15.00;74.60
17659;DHT22;8948;51.534;8.262;2022-09-24T22:43:37;14.90;74.90
17659;DHT22;8948;51.534;8.262;2022-09-24T22:48:39;15.00;74.70
17659;DHT22;8948;51.534;8.262;2022-09-24T22:53:40;15.00;74.80
17659;DHT22;8948;51.534;8.262;2022-09-24T22:58:42;15.00;74.60
17659;DHT22;8948;51.534;8.262;2022-09-24T23:03:46;15.00;74.50
17659;DHT22;8948;51.534;8.262;2022-09-24T23:08:47;14.90;74.60
17659;DHT22;8948;51.534;8.262;2022-09-24T23:13:57;14.90;74.60
17659;DHT22;8948;51.534;8.262;2022-09-24T23:18:59;14.90;74.70
17659;DHT22;8948;51.534;8.262;2022-09-24T23:24:04;14.90;74.40
17659;DHT22;8948;51.534;8.262;2022-09-24T23:29:05;14.80;74.70
17659;DHT22;8948;51.534;8.262;2022-09-24T23:34:06;14.80;74.80
17659;DHT22;8948;51.534;8.262;2022-09-24T23:39:07;14.80;74.60
17659;DHT22;8948;51.534;8.262;2022-09-24T23:44:07;14.90;74.30
17659;DHT22;8948;51.534;8.262;2022-09-24T23:49:08;14.90;74.30
17659;DHT22;8948;51.534;8.262;2022-09-24T23:54:09;14.90;74.20
17659;DHT22;8948;51.534;8.262;2022-09-24T23:59:09;14.90;74.20
